sensor_id;sensor_type;location;lat;lon;timestamp;temperature;humidity
5394;DHT22;2720;52.396;10.064;2022-07-22T00:01:00;18.40;99.90
5394;DHT22;2720;52.396;10.064;2022-07-22T00:03:27;17.00;99.90
5394;DHT22;2720;52.396;10.064;2022-07-22T00:05:57;18.20;99.90
5394;DHT22;2720;52.396;10.064;2022-07-22T00:08:26;19.20;99.90
5394;DHT22;2720;52.396;10.064;2022-07-22T00:10:56;16.90;99.90
5394;DHT22;2720;52.396;10.064;2022-07-22T00:13:23;17.60;99.90
5394;DHT22;2720;52.396;10.064;2022-07-22T00:15:52;18.00;99.90
5394;DHT22;2720;52.396;10.064;2022-07-22T00:18:19;17.80;99.90
5394;DHT22;2720;52.396;10.064;2022-07-22T00:20:46;17.80;99.90
5394;DHT22;2720;52.396;10.064;2022-07-22T00:23:16;18.00;99.90
5394;DHT22;2720;52.396;10.064;2022-07-22T00:25:43;17.90;99.90
5394;DHT22;2720;52.396;10.064;2022-07-22T00:28:10;16.90;99.90
5394;DHT22;2720;52.396;10.064;2022-07-22T00:30:37;17.80;99.90
5394;DHT22;2720;52.396;10.064;2022-07-22T00:33:04;17.80;99.90
5394;DHT22;2720;52.396;10.064;2022-07-22T00:35:32;17.90;99.90
5394;DHT22;2720;52.396;10.064;2022-07-22T00:37:58;17.90;99.90
5394;DHT22;2720;52.396;10.064;2022-07-22T00:40:27;17.80;99.90
5394;DHT22;2720;52.396;10.064;2022-07-22T00:42:54;17.80;99.90
5394;DHT22;2720;52.396;10.064;2022-07-22T00:45:23;17.80;99.90
5394;DHT22;2720;52.396;10.064;2022-07-22T00:47:52;17.70;99.90
5394;DHT22;2720;52.396;10.064;2022-07-22T00:50:22;17.70;99.90
5394;DHT22;2720;52.396;10.064;2022-07-22T00:52:51;17.60;99.90
5394;DHT22;2720;52.396;10.064;2022-07-22T00:55:19;17.50;99.90
5394;DHT22;2720;52.396;10.064;2022-07-22T00:57:47;17.50;99.90
5394;DHT22;2720;52.396;10.064;2022-07-22T01:00:18;17.60;99.90
5394;DHT22;2720;52.396;10.064;2022-07-22T01:02:45;17.50;99.90
5394;DHT22;2720;52.396;10.064;2022-07-22T01:05:12;17.60;99.90
5394;DHT22;2720;52.396;10.064;2022-07-22T01:07:39;17.70;99.90
5394;DHT22;2720;52.396;10.064;2022-07-22T01:10:07;17.80;99.90
5394;DHT22;2720;52.396;10.064;2022-07-22T01:12:34;17.80;99.90
5394;DHT22;2720;52.396;10.064;2022-07-22T01:15:04;17.80;99.90
5394;DHT22;2720;52.396;10.064;2022-07-22T01:17:31;17.90;99.90
5394;DHT22;2720;52.396;10.064;2022-07-22T01:20:01;17.90;99.90
5394;DHT22;2720;52.396;10.064;2022-07-22T01:22:29;17.90;99.90
5394;DHT22;2720;52.396;10.064;2022-07-22T01:24:57;17.90;99.90
5394;DHT22;2720;52.396;10.064;2022-07-22T01:27:24;18.00;99.90
5394;DHT22;2720;52.396;10.064;2022-07-22T01:29:53;18.20;99.90
5394;DHT22;2720;52.396;10.064;2022-07-22T01:32:22;18.10;99.90
5394;DHT22;2720;52.396;10.064;2022-07-22T01:34:49;18.20;99.90
5394;DHT22;2720;52.396;10.064;2022-07-22T01:37:19;17.30;99.90
5394;DHT22;2720;52.396;10.064;2022-07-22T01:39:48;18.20;99.90
5394;DHT22;2720;52.396;10.064;2022-07-22T01:42:16;18.10;99.90
5394;DHT22;2720;52.396;10.064;2022-07-22T01:44:43;18.10;99.90
5394;DHT22;2720;52.396;10.064;2022-07-22T01:47:10;18.10;99.90
5394;DHT22;2720;52.396;10.064;2022-07-22T01:49:39;17.80;99.90
5394;DHT22;2720;52.396;10.064;2022-07-22T01:52:06;18.10;99.90
5394;DHT22;2720;52.396;10.064;2022-07-22T01:54:35;18.20;99.90
5394;DHT22;2720;52.396;10.064;2022-07-22T01:57:02;18.30;99.90
5394;DHT22;2720;52.396;10.064;2022-07-22T01:59:32;18.20;99.90
5394;DHT22;2720;52.396;10.064;2022-07-22T02:01:59;18.10;99.90
5394;DHT22;2720;52.396;10.064;2022-07-22T02:04:28;18.10;99.90
5394;DHT22;2720;52.396;10.064;2022-07-22T02:06:57;18.10;99.90
5394;DHT22;2720;52.396;10.064;2022-07-22T02:09:24;18.10;99.90
5394;DHT22;2720;52.396;10.064;2022-07-22T02:11:52;18.00;99.90
5394;DHT22;2720;52.396;10.064;2022-07-22T02:14:21;18.20;99.90
5394;DHT22;2720;52.396;10.064;2022-07-22T02:16:48;18.20;99.90
5394;DHT22;2720;52.396;10.064;2022-07-22T02:19:15;18.00;99.90
5394;DHT22;2720;52.396;10.064;2022-07-22T02:21:42;18.00;99.90
5394;DHT22;2720;52.396;10.064;2022-07-22T02:24:11;17.90;99.90
5394;DHT22;2720;52.396;10.064;2022-07-22T02:26:40;17.90;99.90
5394;DHT22;2720;52.396;10.064;2022-07-22T02:29:11;17.90;99.90
5394;DHT22;2720;52.396;10.064;2022-07-22T02:31:38;17.80;99.90
5394;DHT22;2720;52.396;10.064;2022-07-22T02:34:07;17.90;99.90
5394;DHT22;2720;52.396;10.064;2022-07-22T02:36:34;17.90;99.90
5394;DHT22;2720;52.396;10.064;2022-07-22T02:39:02;17.80;99.90
5394;DHT22;2720;52.396;10.064;2022-07-22T02:41:29;17.80;99.90
5394;DHT22;2720;52.396;10.064;2022-07-22T02:43:56;17.90;99.90
5394;DHT22;2720;52.396;10.064;2022-07-22T02:46:25;17.10;99.90
5394;DHT22;2720;52.396;10.064;2022-07-22T02:48:56;17.80;99.90
5394;DHT22;2720;52.396;10.064;2022-07-22T02:51:25;17.80;99.90
5394;DHT22;2720;52.396;10.064;2022-07-22T02:53:52;17.70;99.90
5394;DHT22;2720;52.396;10.064;2022-07-22T02:56:21;17.60;99.90
5394;DHT22;2720;52.396;10.064;2022-07-22T02:58:50;17.70;99.90
5394;DHT22;2720;52.396;10.064;2022-07-22T03:01:20;17.60;99.90
5394;DHT22;2720;52.396;10.064;2022-07-22T03:03:49;17.60;99.90
5394;DHT22;2720;52.396;10.064;2022-07-22T03:06:16;17.80;99.90
5394;DHT22;2720;52.396;10.064;2022-07-22T03:08:43;17.80;99.90
5394;DHT22;2720;52.396;10.064;2022-07-22T03:11:10;17.40;99.90
5394;DHT22;2720;52.396;10.064;2022-07-22T03:13:37;17.40;99.90
5394;DHT22;2720;52.396;10.064;2022-07-22T03:16:06;17.30;99.90
5394;DHT22;2720;52.396;10.064;2022-07-22T03:18:34;16.90;99.90
5394;DHT22;2720;52.396;10.064;2022-07-22T03:21:05;18.20;99.90
5394;DHT22;2720;52.396;10.064;2022-07-22T03:23:35;16.20;99.90
5394;DHT22;2720;52.396;10.064;2022-07-22T03:26:04;16.60;99.90
5394;DHT22;2720;52.396;10.064;2022-07-22T03:33:28;16.40;99.90
5394;DHT22;2720;52.396;10.064;2022-07-22T03:35:55;16.30;99.90
5394;DHT22;2720;52.396;10.064;2022-07-22T03:38:24;16.30;99.90
5394;DHT22;2720;52.396;10.064;2022-07-22T03:43:18;16.30;99.90
5394;DHT22;2720;52.396;10.064;2022-07-22T03:45:45;16.30;99.90
5394;DHT22;2720;52.396;10.064;2022-07-22T03:48:12;16.30;99.90
5394;DHT22;2720;52.396;10.064;2022-07-22T03:50:39;16.30;99.90
5394;DHT22;2720;52.396;10.064;2022-07-22T03:53:06;16.20;99.90
5394;DHT22;2720;52.396;10.064;2022-07-22T03:55:34;16.20;99.90
5394;DHT22;2720;52.396;10.064;2022-07-22T03:58:01;16.20;99.90
5394;DHT22;2720;52.396;10.064;2022-07-22T04:00:29;16.20;99.90
5394;DHT22;2720;52.396;10.064;2022-07-22T04:02:56;16.20;99.90
5394;DHT22;2720;52.396;10.064;2022-07-22T04:05:23;16.20;99.90
5394;DHT22;2720;52.396;10.064;2022-07-22T04:07:50;16.20;99.90
5394;DHT22;2720;52.396;10.064;2022-07-22T04:15:13;16.10;99.90
5394;DHT22;2720;52.396;10.064;2022-07-22T04:17:40;16.10;99.90
5394;DHT22;2720;52.396;10.064;2022-07-22T04:20:08;16.10;99.90
5394;DHT22;2720;52.396;10.064;2022-07-22T04:27:30;16.60;99.90
5394;DHT22;2720;52.396;10.064;2022-07-22T04:29:58;16.00;99.90
5394;DHT22;2720;52.396;10.064;2022-07-22T04:32:27;16.40;99.90
5394;DHT22;2720;52.396;10.064;2022-07-22T04:37:26;16.20;99.90
5394;DHT22;2720;52.396;10.064;2022-07-22T04:39:55;16.00;99.90
5394;DHT22;2720;52.396;10.064;2022-07-22T04:44:54;16.10;99.90
5394;DHT22;2720;52.396;10.064;2022-07-22T04:49:52;16.00;99.90
5394;DHT22;2720;52.396;10.064;2022-07-22T04:52:19;16.10;99.90
5394;DHT22;2720;52.396;10.064;2022-07-22T04:57:17;16.50;99.90
5394;DHT22;2720;52.396;10.064;2022-07-22T04:59:46;16.00;99.90
5394;DHT22;2720;52.396;10.064;2022-07-22T05:02:15;16.20;99.90
5394;DHT22;2720;52.396;10.064;2022-07-22T05:04:46;15.70;99.90
5394;DHT22;2720;52.396;10.064;2022-07-22T05:07:15;16.60;99.90
5394;DHT22;2720;52.396;10.064;2022-07-22T05:14:38;17.00;99.90
5394;DHT22;2720;52.396;10.064;2022-07-22T05:17:10;16.40;99.90
5394;DHT22;2720;52.396;10.064;2022-07-22T05:19:38;16.30;99.90
5394;DHT22;2720;52.396;10.064;2022-07-22T05:22:07;16.40;99.90
5394;DHT22;2720;52.396;10.064;2022-07-22T05:24:35;16.40;99.90
5394;DHT22;2720;52.396;10.064;2022-07-22T05:27:02;16.30;99.90
5394;DHT22;2720;52.396;10.064;2022-07-22T05:31:56;15.50;99.90
5394;DHT22;2720;52.396;10.064;2022-07-22T05:36:50;16.30;99.90
5394;DHT22;2720;52.396;10.064;2022-07-22T05:39:19;16.10;99.90
5394;DHT22;2720;52.396;10.064;2022-07-22T05:41:45;16.10;99.90
5394;DHT22;2720;52.396;10.064;2022-07-22T05:44:13;16.10;99.90
5394;DHT22;2720;52.396;10.064;2022-07-22T05:46:40;16.10;99.90
5394;DHT22;2720;52.396;10.064;2022-07-22T05:49:07;16.20;99.90
5394;DHT22;2720;52.396;10.064;2022-07-22T05:51:36;16.00;99.90
5394;DHT22;2720;52.396;10.064;2022-07-22T05:54:03;16.70;99.90
5394;DHT22;2720;52.396;10.064;2022-07-22T05:56:32;15.80;99.90
5394;DHT22;2720;52.396;10.064;2022-07-22T05:58:59;16.20;99.90
5394;DHT22;2720;52.396;10.064;2022-07-22T06:01:26;16.20;99.90
5394;DHT22;2720;52.396;10.064;2022-07-22T06:03:53;16.30;99.90
5394;DHT22;2720;52.396;10.064;2022-07-22T06:11:15;16.20;99.90
5394;DHT22;2720;52.396;10.064;2022-07-22T06:13:43;15.20;99.90
5394;DHT22;2720;52.396;10.064;2022-07-22T06:16:10;15.40;99.90
5394;DHT22;2720;52.396;10.064;2022-07-22T06:21:05;16.40;99.90
5394;DHT22;2720;52.396;10.064;2022-07-22T06:23:33;15.50;99.90
5394;DHT22;2720;52.396;10.064;2022-07-22T06:26:00;15.80;99.90
5394;DHT22;2720;52.396;10.064;2022-07-22T06:28:27;16.00;99.90
5394;DHT22;2720;52.396;10.064;2022-07-22T06:33:23;15.70;99.90
5394;DHT22;2720;52.396;10.064;2022-07-22T06:35:50;15.70;99.90
5394;DHT22;2720;52.396;10.064;2022-07-22T06:38:16;15.70;99.90
5394;DHT22;2720;52.396;10.064;2022-07-22T06:40:43;15.30;99.90
5394;DHT22;2720;52.396;10.064;2022-07-22T06:45:38;15.60;99.90
5394;DHT22;2720;52.396;10.064;2022-07-22T06:50:33;15.50;99.90
5394;DHT22;2720;52.396;10.064;2022-07-22T07:00:23;15.60;99.90
5394;DHT22;2720;52.396;10.064;2022-07-22T07:02:50;15.90;99.90
5394;DHT22;2720;52.396;10.064;2022-07-22T07:05:19;16.00;99.90
5394;DHT22;2720;52.396;10.064;2022-07-22T07:15:16;16.60;99.90
5394;DHT22;2720;52.396;10.064;2022-07-22T07:17:43;16.10;99.90
5394;DHT22;2720;52.396;10.064;2022-07-22T07:22:42;16.40;99.90
5394;DHT22;2720;52.396;10.064;2022-07-22T07:30:06;16.70;99.90
5394;DHT22;2720;52.396;10.064;2022-07-22T07:32:37;17.00;99.90
5394;DHT22;2720;52.396;10.064;2022-07-22T07:37:33;16.90;99.90
5394;DHT22;2720;52.396;10.064;2022-07-22T07:44:59;17.40;99.90
5394;DHT22;2720;52.396;10.064;2022-07-22T07:54:57;17.80;99.90
5394;DHT22;2720;52.396;10.064;2022-07-22T08:07:19;18.50;99.90
5394;DHT22;2720;52.396;10.064;2022-07-22T08:09:46;18.50;99.90
5394;DHT22;2720;52.396;10.064;2022-07-22T08:12:13;18.10;99.90
5394;DHT22;2720;52.396;10.064;2022-07-22T08:14:41;18.70;99.90
5394;DHT22;2720;52.396;10.064;2022-07-22T08:19:37;19.00;99.90
5394;DHT22;2720;52.396;10.064;2022-07-22T08:22:04;19.40;99.90
5394;DHT22;2720;52.396;10.064;2022-07-22T08:24:33;19.40;99.90
5394;DHT22;2720;52.396;10.064;2022-07-22T08:29:33;19.30;99.90
5394;DHT22;2720;52.396;10.064;2022-07-22T08:32:02;19.50;99.90
5394;DHT22;2720;52.396;10.064;2022-07-22T08:34:31;19.40;99.90
5394;DHT22;2720;52.396;10.064;2022-07-22T08:36:58;19.60;99.90
5394;DHT22;2720;52.396;10.064;2022-07-22T08:39:25;19.70;99.90
5394;DHT22;2720;52.396;10.064;2022-07-22T08:41:52;19.80;99.90
5394;DHT22;2720;52.396;10.064;2022-07-22T08:44:20;19.20;99.90
5394;DHT22;2720;52.396;10.064;2022-07-22T08:46:50;19.20;99.90
5394;DHT22;2720;52.396;10.064;2022-07-22T08:49:18;19.70;99.90
5394;DHT22;2720;52.396;10.064;2022-07-22T08:54:14;20.10;99.90
5394;DHT22;2720;52.396;10.064;2022-07-22T08:56:41;20.40;99.90
5394;DHT22;2720;52.396;10.064;2022-07-22T08:59:08;20.50;99.90
5394;DHT22;2720;52.396;10.064;2022-07-22T09:01:35;21.00;99.90
5394;DHT22;2720;52.396;10.064;2022-07-22T09:04:03;20.50;99.90
5394;DHT22;2720;52.396;10.064;2022-07-22T09:06:33;19.80;99.90
5394;DHT22;2720;52.396;10.064;2022-07-22T09:09:02;20.00;99.90
5394;DHT22;2720;52.396;10.064;2022-07-22T09:11:30;19.80;99.90
5394;DHT22;2720;52.396;10.064;2022-07-22T09:13:58;19.70;99.90
5394;DHT22;2720;52.396;10.064;2022-07-22T09:16:39;19.80;99.90
5394;DHT22;2720;52.396;10.064;2022-07-22T09:19:07;19.10;99.90
5394;DHT22;2720;52.396;10.064;2022-07-22T09:21:38;19.00;99.90
5394;DHT22;2720;52.396;10.064;2022-07-22T09:24:06;18.80;99.90
5394;DHT22;2720;52.396;10.064;2022-07-22T09:26:35;18.40;99.90
5394;DHT22;2720;52.396;10.064;2022-07-22T09:29:03;18.60;99.90
5394;DHT22;2720;52.396;10.064;2022-07-22T09:31:32;18.70;99.90
5394;DHT22;2720;52.396;10.064;2022-07-22T09:41:24;18.70;99.90
5394;DHT22;2720;52.396;10.064;2022-07-22T09:43:51;18.90;99.90
5394;DHT22;2720;52.396;10.064;2022-07-22T09:46:34;18.90;99.90
5394;DHT22;2720;52.396;10.064;2022-07-22T09:53:59;20.00;99.90
5394;DHT22;2720;52.396;10.064;2022-07-22T09:56:27;19.30;99.90
5394;DHT22;2720;52.396;10.064;2022-07-22T09:58:55;20.30;99.90
5394;DHT22;2720;52.396;10.064;2022-07-22T10:01:23;19.70;99.90
5394;DHT22;2720;52.396;10.064;2022-07-22T10:03:51;19.90;99.90
5394;DHT22;2720;52.396;10.064;2022-07-22T10:06:20;20.10;99.90
5394;DHT22;2720;52.396;10.064;2022-07-22T10:08:48;20.20;99.90
5394;DHT22;2720;52.396;10.064;2022-07-22T10:11:18;20.40;99.90
5394;DHT22;2720;52.396;10.064;2022-07-22T10:13:45;20.60;99.90
5394;DHT22;2720;52.396;10.064;2022-07-22T10:16:13;20.40;99.90
5394;DHT22;2720;52.396;10.064;2022-07-22T10:18:44;20.70;99.90
5394;DHT22;2720;52.396;10.064;2022-07-22T10:21:12;20.30;99.90
5394;DHT22;2720;52.396;10.064;2022-07-22T10:26:48;20.20;99.90
5394;DHT22;2720;52.396;10.064;2022-07-22T10:29:38;20.10;99.90
5394;DHT22;2720;52.396;10.064;2022-07-22T10:35:21;19.70;99.90
5394;DHT22;2720;52.396;10.064;2022-07-22T10:37:49;19.90;99.90
5394;DHT22;2720;52.396;10.064;2022-07-22T10:40:19;19.80;99.90
5394;DHT22;2720;52.396;10.064;2022-07-22T10:45:42;19.70;99.90
5394;DHT22;2720;52.396;10.064;2022-07-22T10:48:13;20.20;99.90
5394;DHT22;2720;52.396;10.064;2022-07-22T10:50:47;20.00;99.90
5394;DHT22;2720;52.396;10.064;2022-07-22T10:53:17;20.50;99.90
5394;DHT22;2720;52.396;10.064;2022-07-22T10:56:05;20.60;99.90
5394;DHT22;2720;52.396;10.064;2022-07-22T11:03:43;20.60;99.90
5394;DHT22;2720;52.396;10.064;2022-07-22T11:06:14;20.50;99.90
5394;DHT22;2720;52.396;10.064;2022-07-22T11:08:42;20.20;99.90
5394;DHT22;2720;52.396;10.064;2022-07-22T11:11:09;20.30;99.90
5394;DHT22;2720;52.396;10.064;2022-07-22T11:13:38;20.20;99.90
5394;DHT22;2720;52.396;10.064;2022-07-22T11:16:19;20.20;99.90
5394;DHT22;2720;52.396;10.064;2022-07-22T11:18:51;20.60;99.90
5394;DHT22;2720;52.396;10.064;2022-07-22T11:21:21;20.60;99.90
5394;DHT22;2720;52.396;10.064;2022-07-22T11:23:49;20.90;99.90
5394;DHT22;2720;52.396;10.064;2022-07-22T11:26:20;21.50;99.90
5394;DHT22;2720;52.396;10.064;2022-07-22T11:28:50;21.80;99.90
5394;DHT22;2720;52.396;10.064;2022-07-22T11:31:19;19.20;99.90
5394;DHT22;2720;52.396;10.064;2022-07-22T11:33:46;20.70;99.90
5394;DHT22;2720;52.396;10.064;2022-07-22T11:36:13;20.60;99.90
5394;DHT22;2720;52.396;10.064;2022-07-22T11:41:12;19.90;99.90
5394;DHT22;2720;52.396;10.064;2022-07-22T11:43:41;20.30;99.90
5394;DHT22;2720;52.396;10.064;2022-07-22T11:46:08;20.60;99.90
5394;DHT22;2720;52.396;10.064;2022-07-22T11:53:32;20.10;99.90
5394;DHT22;2720;52.396;10.064;2022-07-22T11:56:01;21.50;99.90
5394;DHT22;2720;52.396;10.064;2022-07-22T11:58:35;20.70;99.90
5394;DHT22;2720;52.396;10.064;2022-07-22T12:01:04;21.10;99.90
5394;DHT22;2720;52.396;10.064;2022-07-22T12:03:32;20.70;99.90
5394;DHT22;2720;52.396;10.064;2022-07-22T12:06:01;20.80;99.90
5394;DHT22;2720;52.396;10.064;2022-07-22T12:08:29;20.70;99.90
5394;DHT22;2720;52.396;10.064;2022-07-22T12:13:29;21.10;99.90
5394;DHT22;2720;52.396;10.064;2022-07-22T12:15:56;21.00;99.90
5394;DHT22;2720;52.396;10.064;2022-07-22T12:18:25;20.40;99.90
5394;DHT22;2720;52.396;10.064;2022-07-22T12:20:53;20.70;99.90
5394;DHT22;2720;52.396;10.064;2022-07-22T12:23:23;21.00;99.90
5394;DHT22;2720;52.396;10.064;2022-07-22T12:25:58;21.10;99.90
5394;DHT22;2720;52.396;10.064;2022-07-22T12:28:25;21.20;99.90
5394;DHT22;2720;52.396;10.064;2022-07-22T12:30:56;21.50;99.90
5394;DHT22;2720;52.396;10.064;2022-07-22T12:33:24;21.50;99.90
5394;DHT22;2720;52.396;10.064;2022-07-22T12:36:02;21.50;99.90
5394;DHT22;2720;52.396;10.064;2022-07-22T12:38:31;21.20;99.90
5394;DHT22;2720;52.396;10.064;2022-07-22T12:41:22;21.60;99.90
5394;DHT22;2720;52.396;10.064;2022-07-22T12:46:17;21.50;99.90
5394;DHT22;2720;52.396;10.064;2022-07-22T12:48:50;21.60;99.90
5394;DHT22;2720;52.396;10.064;2022-07-22T12:53:46;21.40;99.90
5394;DHT22;2720;52.396;10.064;2022-07-22T12:58:40;21.30;99.90
5394;DHT22;2720;52.396;10.064;2022-07-22T13:01:07;21.30;99.90
5394;DHT22;2720;52.396;10.064;2022-07-22T13:03:35;21.20;99.90
5394;DHT22;2720;52.396;10.064;2022-07-22T13:06:03;21.10;99.90
5394;DHT22;2720;52.396;10.064;2022-07-22T13:08:31;20.90;99.90
5394;DHT22;2720;52.396;10.064;2022-07-22T13:10:59;20.80;99.90
5394;DHT22;2720;52.396;10.064;2022-07-22T13:13:26;20.80;99.90
5394;DHT22;2720;52.396;10.064;2022-07-22T13:15:54;20.80;99.90
5394;DHT22;2720;52.396;10.064;2022-07-22T13:18:20;20.90;99.90
5394;DHT22;2720;52.396;10.064;2022-07-22T13:20:48;21.10;99.90
5394;DHT22;2720;52.396;10.064;2022-07-22T13:23:15;21.40;99.90
5394;DHT22;2720;52.396;10.064;2022-07-22T13:25:42;21.40;99.90
5394;DHT22;2720;52.396;10.064;2022-07-22T13:28:10;21.40;99.90
5394;DHT22;2720;52.396;10.064;2022-07-22T13:30:37;21.60;99.90
5394;DHT22;2720;52.396;10.064;2022-07-22T13:33:04;21.80;99.90
5394;DHT22;2720;52.396;10.064;2022-07-22T13:35:31;21.60;99.90
5394;DHT22;2720;52.396;10.064;2022-07-22T13:37:58;21.50;99.90
5394;DHT22;2720;52.396;10.064;2022-07-22T13:40:26;21.50;99.90
5394;DHT22;2720;52.396;10.064;2022-07-22T13:42:53;21.40;99.90
5394;DHT22;2720;52.396;10.064;2022-07-22T13:45:21;21.40;99.90
5394;DHT22;2720;52.396;10.064;2022-07-22T13:47:48;21.40;99.90
5394;DHT22;2720;52.396;10.064;2022-07-22T13:50:15;21.20;99.90
5394;DHT22;2720;52.396;10.064;2022-07-22T13:52:42;21.40;99.90
5394;DHT22;2720;52.396;10.064;2022-07-22T13:55:12;21.30;99.90
5394;DHT22;2720;52.396;10.064;2022-07-22T13:57:40;21.30;99.90
5394;DHT22;2720;52.396;10.064;2022-07-22T14:00:08;21.10;99.90
5394;DHT22;2720;52.396;10.064;2022-07-22T14:02:37;21.00;99.90
5394;DHT22;2720;52.396;10.064;2022-07-22T14:05:05;21.00;99.90
5394;DHT22;2720;52.396;10.064;2022-07-22T14:07:32;20.80;99.90
5394;DHT22;2720;52.396;10.064;2022-07-22T14:09:59;21.10;99.90
5394;DHT22;2720;52.396;10.064;2022-07-22T14:12:27;21.20;99.90
5394;DHT22;2720;52.396;10.064;2022-07-22T14:14:54;21.30;99.90
5394;DHT22;2720;52.396;10.064;2022-07-22T14:17:21;21.20;99.90
5394;DHT22;2720;52.396;10.064;2022-07-22T14:19:49;21.10;99.90
5394;DHT22;2720;52.396;10.064;2022-07-22T14:22:19;20.80;99.90
5394;DHT22;2720;52.396;10.064;2022-07-22T14:24:46;20.80;99.90
5394;DHT22;2720;52.396;10.064;2022-07-22T14:27:13;20.90;99.90
5394;DHT22;2720;52.396;10.064;2022-07-22T14:29:40;21.10;99.90
5394;DHT22;2720;52.396;10.064;2022-07-22T14:32:07;21.20;99.90
5394;DHT22;2720;52.396;10.064;2022-07-22T14:34:36;21.30;99.90
5394;DHT22;2720;52.396;10.064;2022-07-22T14:37:05;21.20;99.90
5394;DHT22;2720;52.396;10.064;2022-07-22T14:39:32;21.20;99.90
5394;DHT22;2720;52.396;10.064;2022-07-22T14:41:59;21.20;99.90
5394;DHT22;2720;52.396;10.064;2022-07-22T14:44:26;20.90;99.90
5394;DHT22;2720;52.396;10.064;2022-07-22T14:46:52;20.70;99.90
5394;DHT22;2720;52.396;10.064;2022-07-22T14:49:19;20.60;99.90
5394;DHT22;2720;52.396;10.064;2022-07-22T14:51:46;20.50;99.90
5394;DHT22;2720;52.396;10.064;2022-07-22T14:54:15;20.60;99.90
5394;DHT22;2720;52.396;10.064;2022-07-22T14:56:42;20.40;99.90
5394;DHT22;2720;52.396;10.064;2022-07-22T14:59:09;20.50;99.90
5394;DHT22;2720;52.396;10.064;2022-07-22T15:01:36;20.60;99.90
5394;DHT22;2720;52.396;10.064;2022-07-22T15:04:03;20.50;99.90
5394;DHT22;2720;52.396;10.064;2022-07-22T15:06:30;20.50;99.90
5394;DHT22;2720;52.396;10.064;2022-07-22T15:08:57;20.30;99.90
5394;DHT22;2720;52.396;10.064;2022-07-22T15:11:25;20.20;99.90
5394;DHT22;2720;52.396;10.064;2022-07-22T15:13:52;20.30;99.90
5394;DHT22;2720;52.396;10.064;2022-07-22T15:16:19;20.30;99.90
5394;DHT22;2720;52.396;10.064;2022-07-22T15:18:46;20.30;99.90
5394;DHT22;2720;52.396;10.064;2022-07-22T15:21:13;20.40;99.90
5394;DHT22;2720;52.396;10.064;2022-07-22T15:23:41;20.20;99.90
5394;DHT22;2720;52.396;10.064;2022-07-22T15:26:08;20.30;99.90
5394;DHT22;2720;52.396;10.064;2022-07-22T15:28:36;20.10;99.90
5394;DHT22;2720;52.396;10.064;2022-07-22T15:31:03;20.30;99.90
5394;DHT22;2720;52.396;10.064;2022-07-22T15:33:34;20.00;99.90
5394;DHT22;2720;52.396;10.064;2022-07-22T15:36:04;20.00;99.90
5394;DHT22;2720;52.396;10.064;2022-07-22T15:38:33;20.30;99.90
5394;DHT22;2720;52.396;10.064;2022-07-22T15:43:30;20.30;99.90
5394;DHT22;2720;52.396;10.064;2022-07-22T15:46:01;20.20;99.90
5394;DHT22;2720;52.396;10.064;2022-07-22T15:48:31;20.80;99.90
5394;DHT22;2720;52.396;10.064;2022-07-22T15:50:58;20.50;99.90
5394;DHT22;2720;52.396;10.064;2022-07-22T15:53:28;20.60;99.90
5394;DHT22;2720;52.396;10.064;2022-07-22T15:55:55;20.60;99.90
5394;DHT22;2720;52.396;10.064;2022-07-22T15:58:24;20.90;99.90
5394;DHT22;2720;52.396;10.064;2022-07-22T16:01:10;20.80;99.90
5394;DHT22;2720;52.396;10.064;2022-07-22T16:03:37;21.00;99.90
5394;DHT22;2720;52.396;10.064;2022-07-22T16:06:04;21.00;99.90
5394;DHT22;2720;52.396;10.064;2022-07-22T16:08:31;20.80;99.90
5394;DHT22;2720;52.396;10.064;2022-07-22T16:10:58;21.30;99.90
5394;DHT22;2720;52.396;10.064;2022-07-22T16:13:25;21.20;99.90
5394;DHT22;2720;52.396;10.064;2022-07-22T16:15:52;20.80;99.90
5394;DHT22;2720;52.396;10.064;2022-07-22T16:18:21;20.80;99.90
5394;DHT22;2720;52.396;10.064;2022-07-22T16:20:47;22.00;99.90
5394;DHT22;2720;52.396;10.064;2022-07-22T16:23:14;20.30;99.90
5394;DHT22;2720;52.396;10.064;2022-07-22T16:25:41;20.50;99.90
5394;DHT22;2720;52.396;10.064;2022-07-22T16:28:08;20.50;99.90
5394;DHT22;2720;52.396;10.064;2022-07-22T16:30:38;20.00;99.90
5394;DHT22;2720;52.396;10.064;2022-07-22T16:33:05;20.00;99.90
5394;DHT22;2720;52.396;10.064;2022-07-22T16:35:33;20.10;99.90
5394;DHT22;2720;52.396;10.064;2022-07-22T16:38:00;20.00;99.90
5394;DHT22;2720;52.396;10.064;2022-07-22T16:40:27;19.90;99.90
5394;DHT22;2720;52.396;10.064;2022-07-22T16:42:54;19.80;99.90
5394;DHT22;2720;52.396;10.064;2022-07-22T16:45:21;20.70;99.90
5394;DHT22;2720;52.396;10.064;2022-07-22T16:47:48;19.90;99.90
5394;DHT22;2720;52.396;10.064;2022-07-22T16:50:15;20.00;99.90
5394;DHT22;2720;52.396;10.064;2022-07-22T16:52:44;20.00;99.90
5394;DHT22;2720;52.396;10.064;2022-07-22T16:55:13;19.90;99.90
5394;DHT22;2720;52.396;10.064;2022-07-22T16:57:40;19.80;99.90
5394;DHT22;2720;52.396;10.064;2022-07-22T17:00:08;19.70;99.90
5394;DHT22;2720;52.396;10.064;2022-07-22T17:02:36;20.00;99.90
5394;DHT22;2720;52.396;10.064;2022-07-22T17:05:03;19.90;99.90
5394;DHT22;2720;52.396;10.064;2022-07-22T17:09:59;19.90;99.90
5394;DHT22;2720;52.396;10.064;2022-07-22T17:12:26;19.70;99.90
5394;DHT22;2720;52.396;10.064;2022-07-22T17:14:53;20.10;99.90
5394;DHT22;2720;52.396;10.064;2022-07-22T17:17:20;20.10;99.90
5394;DHT22;2720;52.396;10.064;2022-07-22T17:19:47;20.20;99.90
5394;DHT22;2720;52.396;10.064;2022-07-22T17:22:14;20.80;99.90
5394;DHT22;2720;52.396;10.064;2022-07-22T17:29:37;20.00;99.90
5394;DHT22;2720;52.396;10.064;2022-07-22T17:32:05;19.90;99.90
5394;DHT22;2720;52.396;10.064;2022-07-22T17:34:32;20.00;99.90
5394;DHT22;2720;52.396;10.064;2022-07-22T17:36:59;19.90;99.90
5394;DHT22;2720;52.396;10.064;2022-07-22T17:39:26;19.90;99.90
5394;DHT22;2720;52.396;10.064;2022-07-22T17:41:53;19.90;99.90
5394;DHT22;2720;52.396;10.064;2022-07-22T17:44:21;19.70;99.90
5394;DHT22;2720;52.396;10.064;2022-07-22T17:46:48;19.60;99.90
5394;DHT22;2720;52.396;10.064;2022-07-22T17:49:15;19.50;99.90
5394;DHT22;2720;52.396;10.064;2022-07-22T17:51:43;19.30;99.90
5394;DHT22;2720;52.396;10.064;2022-07-22T17:54:10;19.20;99.90
5394;DHT22;2720;52.396;10.064;2022-07-22T17:56:37;19.30;99.90
5394;DHT22;2720;52.396;10.064;2022-07-22T17:59:04;19.30;99.90
5394;DHT22;2720;52.396;10.064;2022-07-22T18:01:33;19.40;99.90
5394;DHT22;2720;52.396;10.064;2022-07-22T18:04:00;19.50;99.90
5394;DHT22;2720;52.396;10.064;2022-07-22T18:06:27;19.40;99.90
5394;DHT22;2720;52.396;10.064;2022-07-22T18:08:54;19.50;99.90
5394;DHT22;2720;52.396;10.064;2022-07-22T18:11:21;19.30;99.90
5394;DHT22;2720;52.396;10.064;2022-07-22T18:13:49;19.40;99.90
5394;DHT22;2720;52.396;10.064;2022-07-22T18:16:16;19.00;99.90
5394;DHT22;2720;52.396;10.064;2022-07-22T18:18:45;19.50;99.90
5394;DHT22;2720;52.396;10.064;2022-07-22T18:21:12;19.50;99.90
5394;DHT22;2720;52.396;10.064;2022-07-22T18:23:39;19.50;99.90
5394;DHT22;2720;52.396;10.064;2022-07-22T18:26:06;18.60;99.90
5394;DHT22;2720;52.396;10.064;2022-07-22T18:28:34;19.20;99.90
5394;DHT22;2720;52.396;10.064;2022-07-22T18:31:03;19.30;99.90